Time;durP1;ratioP1;P1;durP2;ratioP2;P2;SDS_P1;SDS_P2;PMS_P1;PMS_P2;Temp;Humidity;BMP_temperature;BMP_pressure;BME280_temperature;BME280_humidity;BME280_pressure;Samples;Min_cycle;Max_cycle;Signal;HPM_P1;HPM_P2
2023/04/26 00:00:07;;;;;;;0.25;0.20;;;;;;;-147.53;100.00;57128.34;10025860;29;20065;-80
2023/04/26 00:05:09;;;;;;;0.20;0.20;;;;;;;-147.53;100.00;57128.34;10057735;29;20050;-79
2023/04/26 00:10:12;;;;;;;2.85;0.98;;;;;;;-147.53;100.00;57128.34;10057116;29;20064;-80
2023/04/26 00:15:13;;;;;;;0.65;0.45;;;;;;;-147.53;100.00;57128.34;10040751;29;20058;-80
2023/04/26 00:20:15;;;;;;;0.52;0.45;;;;;;;-147.53;100.00;57128.34;10059450;29;20164;-80
2023/04/26 00:25:17;;;;;;;0.38;0.38;;;;;;;-147.53;100.00;57128.34;10040589;29;20553;-80
2023/04/26 00:30:18;;;;;;;1.95;0.68;;;;;;;-147.53;100.00;57128.34;10073817;29;20052;-80
2023/04/26 00:35:20;;;;;;;2.25;0.75;;;;;;;-147.53;100.00;57128.34;10042574;29;20082;-80
2023/04/26 00:40:22;;;;;;;1.55;0.80;;;;;;;-147.53;100.00;57128.34;10063405;29;20084;-81
2023/04/26 00:45:24;;;;;;;0.88;0.65;;;;;;;-147.53;100.00;57128.34;10044936;29;20135;-82
2023/04/26 00:50:26;;;;;;;2.17;0.95;;;;;;;-147.53;100.00;57128.34;10055402;29;20495;-81
2023/04/26 00:55:28;;;;;;;0.32;0.32;;;;;;;-147.53;100.00;57128.34;10045940;29;20415;-82
2023/04/26 01:00:30;;;;;;;2.45;0.50;;;;;;;-147.53;100.00;57128.34;10078425;29;20049;-81
2023/04/26 01:05:31;;;;;;;0.55;0.45;;;;;;;-147.53;100.00;57128.34;10064527;29;20053;-80
2023/04/26 01:10:34;;;;;;;0.93;0.73;;;;;;;-147.53;100.00;57128.34;10063300;29;20053;-81
2023/04/26 01:15:37;;;;;;;0.25;0.25;;;;;;;-147.53;100.00;57128.34;10064517;29;20065;-81
2023/04/26 01:20:39;;;;;;;0.50;0.50;;;;;;;-147.53;100.00;57128.34;10064860;29;20053;-80
2023/04/26 01:25:40;;;;;;;0.43;0.43;;;;;;;-147.53;100.00;57128.34;10047452;29;20082;-81
2023/04/26 01:30:42;;;;;;;0.40;0.40;;;;;;;-147.53;100.00;57128.34;10067742;29;20137;-81
2023/04/26 01:35:44;;;;;;;0.30;0.30;;;;;;;-147.53;100.00;57128.34;10071100;29;20057;-81
2023/04/26 01:40:45;;;;;;;0.30;0.30;;;;;;;-147.53;100.00;57128.34;10080540;29;20534;-81
2023/04/26 01:45:47;;;;;;;0.30;0.20;;;;;;;-147.53;100.00;57128.34;10041810;29;20446;-81
2023/04/26 01:51:04;;;;;;;0.50;0.28;;;;;;;-147.53;100.00;57128.34;10055657;29;20053;-81
2023/04/26 01:56:07;;;;;;;0.10;0.10;;;;;;;-147.53;100.00;57128.34;10055551;29;20053;-81
2023/04/26 02:01:11;;;;;;;0.43;0.43;;;;;;;-147.53;100.00;57128.34;10055208;29;20437;-81
2023/04/26 02:06:12;;;;;;;1.15;1.05;;;;;;;-147.53;100.00;57128.34;10038461;29;20054;-81
2023/04/26 02:11:14;;;;;;;0.93;0.30;;;;;;;-147.53;100.00;57128.34;10053077;29;20534;-81
2023/04/26 02:16:16;;;;;;;2.00;0.63;;;;;;;-147.53;100.00;57128.34;10036799;29;20053;-81
2023/04/26 02:21:20;;;;;;;0.32;0.32;;;;;;;-147.53;100.00;57128.34;10035751;29;20049;-82
2023/04/26 02:26:21;;;;;;;0.35;0.35;;;;;;;-147.53;100.00;57128.34;10036160;29;20077;-81
2023/04/26 02:31:23;;;;;;;1.00;0.75;;;;;;;-147.53;100.00;57128.34;10036147;29;20084;-81
2023/04/26 02:36:26;;;;;;;0.77;0.43;;;;;;;-147.53;100.00;57128.34;10035836;29;20064;-81
2023/04/26 02:41:31;;;;;;;2.00;1.75;;;;;;;-147.53;100.00;57128.34;10035127;29;20053;-81
2023/04/26 02:46:33;;;;;;;0.73;0.63;;;;;;;-147.53;100.00;57128.34;10050748;29;20117;-81
2023/04/26 02:51:35;;;;;;;0.40;0.40;;;;;;;-147.53;100.00;57128.34;10034720;29;20064;-81
2023/04/26 02:56:36;;;;;;;0.25;0.25;;;;;;;-147.53;100.00;57128.34;10034449;29;20073;-81
2023/04/26 03:01:39;;;;;;;1.42;0.82;;;;;;;-147.53;100.00;57128.34;10034894;29;20148;-81
2023/04/26 03:06:40;;;;;;;1.10;0.60;;;;;;;-147.53;100.00;57128.34;10051489;29;20054;-81
2023/04/26 03:11:42;;;;;;;0.40;0.40;;;;;;;-147.53;100.00;57128.34;10033758;29;20054;-81
2023/04/26 03:16:44;;;;;;;0.25;0.25;;;;;;;-147.53;100.00;57128.34;10065389;29;20114;-81
2023/04/26 03:21:46;;;;;;;0.28;0.28;;;;;;;-147.53;100.00;57128.34;10035056;29;20084;-81
2023/04/26 03:26:47;;;;;;;1.10;0.82;;;;;;;-147.53;100.00;57128.34;10052861;29;20128;-81
2023/04/26 03:31:49;;;;;;;0.10;0.10;;;;;;;-147.53;100.00;57128.34;10035729;29;20065;-82
2023/04/26 03:36:51;;;;;;;2.85;0.57;;;;;;;-147.53;100.00;57128.34;10039831;29;20055;-81
2023/04/26 03:41:53;;;;;;;2.75;0.88;;;;;;;-147.53;100.00;57128.34;10072622;29;20057;-81
2023/04/26 03:46:55;;;;;;;0.40;0.30;;;;;;;-147.53;100.00;57128.34;10072303;29;20121;-82
2023/04/26 03:51:56;;;;;;;0.77;0.77;;;;;;;-147.53;100.00;57128.34;10042309;29;20056;-82
2023/04/26 03:56:58;;;;;;;0.50;0.40;;;;;;;-147.53;100.00;57128.34;10032909;29;20059;-83
2023/04/26 04:02:00;;;;;;;0.32;0.32;;;;;;;-147.53;100.00;57128.34;10038131;29;20057;-85
2023/04/26 04:07:06;;;;;;;0.20;0.20;;;;;;;-147.53;100.00;57128.34;10038604;29;20050;-85
2023/04/26 04:12:11;;;;;;;0.82;0.40;;;;;;;-147.53;100.00;57128.34;10039842;29;20055;-84
2023/04/26 04:17:30;;;;;;;0.50;0.35;;;;;;;-147.53;100.00;57128.34;10049968;29;20080;-87
2023/04/26 04:23:53;;;;;;;0.90;0.80;;;;;;;-147.53;100.00;57128.34;10063976;29;20120;-86
2023/04/26 04:29:26;;;;;;;0.80;0.75;;;;;;;-147.53;100.00;57128.34;10038485;29;20052;-87
2023/04/26 04:34:50;;;;;;;0.40;0.40;;;;;;;-147.53;100.00;57128.34;10049684;29;20057;-85
2023/04/26 04:40:00;;;;;;;1.00;0.60;;;;;;;-147.53;100.00;57128.34;10036712;29;20064;-83
2023/04/26 04:45:04;;;;;;;0.32;0.25;;;;;;;-147.53;100.00;57128.34;10042474;29;20422;-83
2023/04/26 04:50:08;;;;;;;1.30;0.57;;;;;;;-147.53;100.00;57128.34;10039038;29;20057;-83
2023/04/26 04:55:11;;;;;;;0.75;0.65;;;;;;;-147.53;100.00;57128.34;10029612;29;20106;-85
2023/04/26 05:00:18;;;;;;;0.28;0.28;;;;;;;-147.53;100.00;57128.34;10029676;29;20054;-86
2023/04/26 05:05:37;;;;;;;0.32;0.30;;;;;;;-147.53;100.00;57128.34;10035777;29;20475;-86
2023/04/26 05:11:42;;;;;;;1.10;0.95;;;;;;;-147.53;100.00;57128.34;10050865;29;20046;-86
2023/04/26 05:18:10;;;;;;;;;;;;;;;;;;;;;
2023/04/26 06:17:52;;;;;;;0.45;0.45;;;;;;;-147.53;100.00;57128.34;10130959;29;20059;-86
2023/04/26 06:23:17;;;;;;;0.80;0.80;;;;;;;-147.53;100.00;57128.34;10035267;29;20136;-86
2023/04/26 06:29:02;;;;;;;0.77;0.40;;;;;;;-147.53;100.00;57128.34;10039000;29;20639;-85
2023/04/26 06:34:34;;;;;;;1.00;0.50;;;;;;;-147.53;100.00;57128.34;9987256;29;20533;-84
2023/04/26 07:14:26;;;;;;;;;;;;;;;;;;;;;
2023/04/26 07:19:47;;;;;;;3.28;1.00;;;;;;;-147.53;100.00;57128.34;10165834;29;20374;-88
2023/04/26 07:24:50;;;;;;;4.35;0.70;;;;;;;-147.53;100.00;57128.34;10139283;29;20064;-86
2023/04/26 07:29:56;;;;;;;;;;;;;;;-147.53;100.00;57128.34;10133507;29;20619;-86
2023/04/26 07:35:14;;;;;;;;;;;;;;;-147.53;100.00;57128.34;10134006;29;19927;-86
2023/04/26 07:40:18;;;;;;;1.35;0.73;;;;;;;-147.53;100.00;57128.34;10105240;29;19923;-86
2023/04/26 07:45:21;;;;;;;1.58;0.73;;;;;;;-147.53;100.00;57128.34;10133809;29;20163;-85
2023/04/26 07:50:23;;;;;;;0.82;0.50;;;;;;;-147.53;100.00;57128.34;10130440;29;20052;-84
2023/04/26 07:55:30;;;;;;;1.70;0.80;;;;;;;-147.53;100.00;57128.34;10113659;29;20057;-84
2023/04/26 08:00:32;;;;;;;1.58;0.60;;;;;;;-147.53;100.00;57128.34;10144436;29;20517;-83
2023/04/26 08:05:33;;;;;;;2.92;1.30;;;;;;;-147.53;100.00;57128.34;10158990;29;20405;-84
2023/04/26 08:10:37;;;;;;;1.52;0.70;;;;;;;-147.53;100.00;57128.34;10125936;29;20044;-83
2023/04/26 08:15:38;;;;;;;2.13;1.10;;;;;;;-147.53;100.00;57128.34;10161855;29;20048;-83
2023/04/26 08:20:40;;;;;;;1.95;1.02;;;;;;;-147.53;100.00;57128.34;10157480;29;20056;-83
2023/04/26 08:25:41;;;;;;;0.60;0.60;;;;;;;-147.53;100.00;57128.34;10164966;29;20051;-82
2023/04/26 08:30:43;;;;;;;0.93;0.70;;;;;;;-147.53;100.00;57128.34;10153475;29;20044;-82
2023/04/26 08:35:45;;;;;;;1.38;1.05;;;;;;;-147.53;100.00;57128.34;10159419;29;20056;-82
2023/04/26 08:40:47;;;;;;;1.75;1.10;;;;;;;-147.53;100.00;57128.34;10157804;29;20135;-82
2023/04/26 08:45:49;;;;;;;1.80;0.52;;;;;;;-147.53;100.00;57128.34;10157697;29;20078;-82
2023/04/26 08:50:51;;;;;;;2.72;1.17;;;;;;;-147.53;100.00;57128.34;10143066;29;20063;-82
2023/04/26 08:55:54;;;;;;;0.52;0.47;;;;;;;-147.53;100.00;57128.34;10164886;29;20083;-83
2023/04/26 09:00:57;;;;;;;0.63;0.50;;;;;;;-147.53;100.00;57128.34;10148552;29;20111;-82
2023/04/26 09:06:00;;;;;;;7.63;0.80;;;;;;;-147.53;100.00;57128.34;10166394;29;20076;-82
2023/04/26 09:11:04;;;;;;;3.33;0.88;;;;;;;-147.53;100.00;57128.34;10158268;29;20048;-81
2023/04/26 09:16:07;;;;;;;0.98;0.50;;;;;;;-147.53;100.00;57128.34;10166974;29;20087;-81
2023/04/26 09:21:09;;;;;;;1.25;0.57;;;;;;;-147.53;100.00;57128.34;10197178;29;20076;-82
2023/04/26 09:26:19;;;;;;;0.95;0.85;;;;;;;-147.53;100.00;57128.34;10182184;29;20059;-82
2023/04/26 09:31:38;;;;;;;5.43;1.35;;;;;;;-147.53;100.00;57128.34;10165552;29;20052;-82
2023/04/26 09:36:55;;;;;;;1.60;0.90;;;;;;;-147.53;100.00;57128.34;10126082;29;20083;-81
2023/04/26 09:41:57;;;;;;;1.52;1.05;;;;;;;-147.53;100.00;57128.34;10165322;29;20101;-81
2023/04/26 09:47:00;;;;;;;2.13;0.68;;;;;;;-147.53;100.00;57128.34;10136418;29;20063;-82
2023/04/26 09:52:05;;;;;;;9.63;1.25;;;;;;;-147.53;100.00;57128.34;10152839;29;20048;-82
2023/04/26 09:57:07;;;;;;;6.15;1.05;;;;;;;-147.53;100.00;57128.34;10142211;29;20428;-82
2023/04/26 10:02:21;;;;;;;0.73;0.70;;;;;;;-147.53;100.00;57128.34;10145891;29;20067;-82
2023/04/26 10:07:24;;;;;;;2.30;0.55;;;;;;;-147.53;100.00;57128.34;10141130;29;20103;-82
2023/04/26 10:12:27;;;;;;;1.65;0.93;;;;;;;-147.53;100.00;57128.34;10141779;29;20123;-83
2023/04/26 10:17:29;;;;;;;1.60;0.70;;;;;;;-147.53;100.00;57128.34;10145918;29;20056;-82
2023/04/26 10:22:35;;;;;;;0.82;0.50;;;;;;;-147.53;100.00;57128.34;10155407;29;20060;-82
2023/04/26 10:27:42;;;;;;;1.20;0.52;;;;;;;-147.53;100.00;57128.34;10142613;29;20048;-82
2023/04/26 10:32:55;;;;;;;0.40;0.32;;;;;;;-147.53;100.00;57128.34;10146757;29;20048;-82
2023/04/26 10:38:01;;;;;;;0.95;0.65;;;;;;;-147.53;100.00;57128.34;10153948;29;20080;-84
2023/04/26 10:43:08;;;;;;;1.00;0.52;;;;;;;-147.53;100.00;57128.34;10159738;29;20052;-83
2023/04/26 10:48:27;;;;;;;0.88;0.47;;;;;;;-147.53;100.00;57128.34;10137471;29;20116;-82
2023/04/26 10:53:31;;;;;;;1.42;0.73;;;;;;;-147.53;100.00;57128.34;10152918;29;20274;-81
2023/04/26 10:58:34;;;;;;;0.55;0.40;;;;;;;-147.53;100.00;57128.34;10145315;29;20052;-82
2023/04/26 11:03:37;;;;;;;0.75;0.60;;;;;;;-147.53;100.00;57128.34;10150831;29;20040;-82
2023/04/26 11:08:39;;;;;;;0.95;0.50;;;;;;;-147.53;100.00;57128.34;10158655;29;20057;-82
2023/04/26 11:13:42;;;;;;;1.85;0.93;;;;;;;-147.53;100.00;57128.34;10163078;29;20416;-83
2023/04/26 11:18:45;;;;;;;1.30;0.60;;;;;;;-147.53;100.00;57128.34;10124373;29;20139;-84
2023/04/26 11:23:54;;;;;;;1.80;0.60;;;;;;;-147.53;100.00;57128.34;10129434;29;20107;-81
2023/04/26 11:34:38;;;;;;;0.85;0.55;;;;;;;-147.53;100.00;57128.34;10778184;23;20595;-84
2023/04/26 11:39:51;;;;;;;3.10;0.45;;;;;;;-147.53;100.00;57128.34;10142291;29;20059;-85
2023/04/26 12:17:20;;;;;;;1.02;0.50;;;;;;;-147.53;100.00;57128.34;10359137;23;20066;-89
2023/04/26 12:23:23;;;;;;;0.52;0.50;;;;;;;-147.53;100.00;57128.34;10147266;29;20052;-88
2023/04/26 12:28:46;;;;;;;0.32;0.32;;;;;;;-147.53;100.00;57128.34;10163377;29;20500;-88
2023/04/26 12:34:07;;;;;;;0.40;0.38;;;;;;;-147.53;100.00;57128.34;10176425;29;20091;-88
2023/04/26 12:39:52;;;;;;;1.30;0.40;;;;;;;-147.53;100.00;57128.34;10156358;29;20115;-88
2023/04/26 12:45:27;;;;;;;0.55;0.40;;;;;;;-147.53;100.00;57128.34;10123279;29;20512;-89
2023/04/26 12:50:33;;;;;;;1.65;0.75;;;;;;;-147.53;100.00;57128.34;10142854;29;20056;-87
2023/04/26 12:55:48;;;;;;;1.00;0.40;;;;;;;-147.53;100.00;57128.34;10153576;29;20462;-86
2023/04/26 13:00:52;;;;;;;0.80;0.40;;;;;;;-147.53;100.00;57128.34;10178475;29;20062;-87
2023/04/26 13:05:59;;;;;;;6.47;0.90;;;;;;;-147.53;100.00;57128.34;10144301;29;20064;-85
2023/04/26 13:11:08;;;;;;;1.85;0.43;;;;;;;-147.53;100.00;57128.34;10136099;29;20079;-86
2023/04/26 13:16:11;;;;;;;0.98;0.50;;;;;;;-147.53;100.00;57128.34;10137807;29;20048;-86
2023/04/26 13:21:17;;;;;;;0.80;0.40;;;;;;;-147.53;100.00;57128.34;10194216;29;20051;-86
2023/04/26 13:26:18;;;;;;;0.90;0.50;;;;;;;-147.53;100.00;57128.34;10161891;29;20143;-85
2023/04/26 13:31:23;;;;;;;0.43;0.35;;;;;;;-147.53;100.00;57128.34;10141832;29;20418;-84
2023/04/26 13:36:26;;;;;;;0.40;0.32;;;;;;;-147.53;100.00;57128.34;10172945;29;20139;-84
2023/04/26 13:41:32;;;;;;;1.13;0.32;;;;;;;-147.53;100.00;57128.34;10154925;29;20227;-84
2023/04/26 13:46:33;;;;;;;1.90;0.50;;;;;;;-147.53;100.00;57128.34;10157201;29;20159;-85
2023/04/26 13:51:36;;;;;;;3.30;0.47;;;;;;;-147.53;100.00;57128.34;10153457;29;20174;-85
2023/04/26 13:56:38;;;;;;;0.30;0.30;;;;;;;-147.53;100.00;57128.34;10148627;29;20063;-83
2023/04/26 14:01:39;;;;;;;6.75;0.43;;;;;;;-147.53;100.00;57128.34;10167696;29;20091;-83
2023/04/26 14:06:41;;;;;;;1.20;0.40;;;;;;;-147.53;100.00;57128.34;10166790;29;20572;-84
2023/04/26 14:11:43;;;;;;;0.98;0.38;;;;;;;-147.53;100.00;57128.34;10155796;29;20070;-83
2023/04/26 14:16:48;;;;;;;1.33;0.47;;;;;;;-147.53;100.00;57128.34;10175060;29;20075;-83
2023/04/26 14:21:49;;;;;;;2.17;0.55;;;;;;;-147.53;100.00;57128.34;10165945;29;20138;-84
2023/04/26 14:26:51;;;;;;;0.30;0.30;;;;;;;-147.53;100.00;57128.34;10178632;29;20163;-83
2023/04/26 14:31:52;;;;;;;3.35;0.90;;;;;;;-147.53;100.00;57128.34;10160687;29;20052;-84
2023/04/26 14:57:22;;;;;;;3.75;1.35;;;;;;;-147.53;100.00;57128.34;10128836;23;20109;-88
2023/04/26 15:10:00;;;;;;;2.72;1.13;;;;;;;-147.53;100.00;57128.34;10178011;28;20252;-87
2023/04/26 15:38:13;;;;;;;0.32;0.32;;;;;;;-147.53;100.00;57128.34;10578876;23;20071;-88
2023/04/26 16:59:29;;;;;;;;;;;;;;;;;;;;;
2023/04/26 17:12:49;;;;;;;2.00;0.65;;;;;;;-147.53;100.00;57128.34;10210433;23;20151;-88
2023/04/26 17:24:45;;;;;;;0.82;0.73;;;;;;;-147.53;100.00;57128.34;10517082;23;20059;-87
2023/04/26 17:30:51;;;;;;;;;;;;;;;;;;;;;
2023/04/26 18:01:19;;;;;;;6.22;0.68;;;;;;;-147.53;100.00;57128.34;10068032;29;20075;-89
2023/04/26 18:20:37;;;;;;;0.60;0.45;;;;;;;-147.53;100.00;57128.34;10174910;23;20406;-88
2023/04/26 18:26:13;;;;;;;1.13;0.40;;;;;;;-147.53;100.00;57128.34;10145665;29;20102;-87
2023/04/26 18:31:19;;;;;;;1.58;0.68;;;;;;;-147.53;100.00;57128.34;10166688;29;20513;-89
2023/04/26 18:36:38;;;;;;;0.80;0.68;;;;;;;-147.53;100.00;57128.34;10138741;29;20539;-89
2023/04/26 18:41:53;;;;;;;1.13;0.60;;;;;;;-147.53;100.00;57128.34;10150104;29;20063;-89
2023/04/26 18:47:04;;;;;;;0.50;0.43;;;;;;;-147.53;100.00;57128.34;10156872;29;20077;-89
2023/04/26 18:52:15;;;;;;;3.70;1.08;;;;;;;-147.53;100.00;57128.34;10151632;29;20056;-89
2023/04/26 18:57:28;;;;;;;1.55;0.80;;;;;;;-147.53;100.00;57128.34;10166170;29;20064;-88
2023/04/26 19:02:49;;;;;;;1.00;0.60;;;;;;;-147.53;100.00;57128.34;10129981;29;20048;-90
2023/04/26 19:08:05;;;;;;;4.55;0.93;;;;;;;-147.53;100.00;57128.34;10156588;29;20425;-88
2023/04/26 19:13:11;;;;;;;3.88;1.05;;;;;;;-147.53;100.00;57128.34;10139932;29;20092;-89
2023/04/26 19:18:27;;;;;;;0.82;0.73;;;;;;;-147.53;100.00;57128.34;10163595;29;20055;-88
2023/04/26 19:23:34;;;;;;;1.85;1.45;;;;;;;-147.53;100.00;57128.34;10142027;29;20127;-88
2023/04/26 19:28:38;;;;;;;1.10;0.90;;;;;;;-147.53;100.00;57128.34;10148637;29;20086;-88
2023/04/26 19:33:44;;;;;;;0.85;0.45;;;;;;;-147.53;100.00;57128.34;10164216;29;20035;-87
2023/04/26 19:38:50;;;;;;;2.00;0.60;;;;;;;-147.53;100.00;57128.34;10170260;29;20080;-89
2023/04/26 19:44:00;;;;;;;3.63;1.35;;;;;;;-147.53;100.00;57128.34;10141202;29;20044;-88
2023/04/26 19:49:07;;;;;;;1.70;0.95;;;;;;;-147.53;100.00;57128.34;10172041;29;20576;-88
2023/04/26 19:54:13;;;;;;;2.47;1.17;;;;;;;-147.53;100.00;57128.34;10157945;29;20036;-87
2023/04/26 19:59:19;;;;;;;1.88;1.10;;;;;;;-147.53;100.00;57128.34;10200777;29;20048;-87
2023/04/26 20:04:30;;;;;;;7.43;1.00;;;;;;;-147.53;100.00;57128.34;10211662;29;20054;-87
2023/04/26 20:09:39;;;;;;;1.13;0.80;;;;;;;-147.53;100.00;57128.34;10167066;29;20061;-88
2023/04/26 20:15:19;;;;;;;;;;;;;;;;;;;;;
2023/04/26 20:20:27;;;;;;;0.45;0.45;;;;;;;-147.53;100.00;57128.34;10177077;29;20059;-87
2023/04/26 20:25:41;;;;;;;0.43;0.43;;;;;;;-147.53;100.00;57128.34;10177299;29;20054;-88
2023/04/26 20:30:48;;;;;;;3.20;1.40;;;;;;;-147.53;100.00;57128.34;10174628;29;20572;-88
2023/04/26 20:36:00;;;;;;;1.27;0.75;;;;;;;-147.53;100.00;57128.34;10153685;29;20429;-88
2023/04/26 20:41:09;;;;;;;1.33;0.40;;;;;;;-147.53;100.00;57128.34;10186057;29;20103;-87
2023/04/26 20:46:20;;;;;;;3.28;1.48;;;;;;;-147.53;100.00;57128.34;10149737;29;20531;-88
2023/04/26 20:51:32;;;;;;;0.80;0.68;;;;;;;-147.53;100.00;57128.34;10172115;29;20051;-88
2023/04/26 20:56:41;;;;;;;0.40;0.40;;;;;;;-147.53;100.00;57128.34;10140446;29;20048;-88
2023/04/26 21:01:47;;;;;;;0.73;0.50;;;;;;;-147.53;100.00;57128.34;10154500;29;20056;-88
2023/04/26 21:06:56;;;;;;;0.80;0.60;;;;;;;-147.53;100.00;57128.34;10176583;29;20135;-87
2023/04/26 21:12:02;;;;;;;0.70;0.70;;;;;;;-147.53;100.00;57128.34;10166522;29;20055;-85
2023/04/26 21:17:05;;;;;;;0.30;0.30;;;;;;;-147.53;100.00;57128.34;10166121;29;20051;-87
2023/04/26 21:22:09;;;;;;;1.75;0.80;;;;;;;-147.53;100.00;57128.34;10125450;29;20127;-87
2023/04/26 21:27:11;;;;;;;0.85;0.40;;;;;;;-147.53;100.00;57128.34;10168482;29;20510;-87
2023/04/26 21:32:13;;;;;;;1.35;0.65;;;;;;;-147.53;100.00;57128.34;10168361;29;20508;-87
2023/04/26 21:37:16;;;;;;;1.20;0.90;;;;;;;-147.53;100.00;57128.34;10140246;29;20051;-86
2023/04/26 21:42:18;;;;;;;0.90;0.45;;;;;;;-147.53;100.00;57128.34;10167170;29;20123;-87
2023/04/26 21:47:23;;;;;;;0.35;0.35;;;;;;;-147.53;100.00;57128.34;10144913;29;20052;-87
2023/04/26 21:52:41;;;;;;;1.25;0.82;;;;;;;-147.53;100.00;57128.34;10167733;29;20134;-87
2023/04/26 21:57:48;;;;;;;0.32;0.32;;;;;;;-147.53;100.00;57128.34;10144722;29;20062;-87
2023/04/26 22:02:50;;;;;;;0.45;0.35;;;;;;;-147.53;100.00;57128.34;10158900;29;20040;-86
2023/04/26 22:07:54;;;;;;;0.40;0.40;;;;;;;-147.53;100.00;57128.34;10180770;29;20059;-86
2023/04/26 22:13:00;;;;;;;4.07;0.60;;;;;;;-147.53;100.00;57128.34;10152107;29;20071;-88
2023/04/26 22:18:12;;;;;;;1.30;0.57;;;;;;;-147.53;100.00;57128.34;10144056;29;20457;-86
2023/04/26 22:23:14;;;;;;;0.82;0.60;;;;;;;-147.53;100.00;57128.34;10179876;29;20103;-87
2023/04/26 22:28:15;;;;;;;1.08;0.50;;;;;;;-147.53;100.00;57128.34;10191778;29;20052;-87
2023/04/26 22:33:21;;;;;;;1.00;0.60;;;;;;;-147.53;100.00;57128.34;10195488;29;20087;-87
2023/04/26 22:38:24;;;;;;;1.17;0.68;;;;;;;-147.53;100.00;57128.34;10129311;29;20409;-87
2023/04/26 22:43:28;;;;;;;0.98;0.73;;;;;;;-147.53;100.00;57128.34;10171369;29;20066;-88
2023/04/26 22:48:30;;;;;;;0.93;0.35;;;;;;;-147.53;100.00;57128.34;10154844;29;20499;-87
2023/04/26 22:53:32;;;;;;;0.82;0.60;;;;;;;-147.53;100.00;57128.34;10180234;29;20036;-87
2023/04/26 22:58:45;;;;;;;0.57;0.47;;;;;;;-147.53;100.00;57128.34;10153609;29;20048;-85
2023/04/26 23:03:59;;;;;;;0.40;0.40;;;;;;;-147.53;100.00;57128.34;10120770;29;20052;-87
2023/04/26 23:09:05;;;;;;;1.20;0.65;;;;;;;-147.53;100.00;57128.34;10147391;29;20044;-87
2023/04/26 23:14:08;;;;;;;1.48;0.70;;;;;;;-147.53;100.00;57128.34;10152326;29;20923;-87
2023/04/26 23:19:11;;;;;;;0.30;0.30;;;;;;;-147.53;100.00;57128.34;10157784;29;20464;-86
2023/04/26 23:24:13;;;;;;;1.23;0.50;;;;;;;-147.53;100.00;57128.34;10168478;29;20048;-86
2023/04/26 23:29:18;;;;;;;2.15;1.95;;;;;;;-147.53;100.00;57128.34;10149227;29;20456;-86
2023/04/26 23:34:26;;;;;;;0.43;0.43;;;;;;;-147.53;100.00;57128.34;10160647;29;20054;-85
2023/04/26 23:39:28;;;;;;;1.40;0.60;;;;;;;-147.53;100.00;57128.34;10163720;29;20115;-86
2023/04/26 23:44:31;;;;;;;1.00;0.50;;;;;;;-147.53;100.00;57128.34;10163296;29;20048;-86
2023/04/26 23:49:32;;;;;;;0.60;0.57;;;;;;;-147.53;100.00;57128.34;10171326;29;20375;-85
2023/04/26 23:54:34;;;;;;;0.65;0.30;;;;;;;-147.53;100.00;57128.34;10181499;29;20138;-85
2023/04/26 23:59:35;;;;;;;0.80;0.50;;;;;;;-147.53;100.00;57128.34;10188222;29;20079;-84
